Terminal Aerodrome Forecast
Issued by NWS

Home | Current Version | Previous Version | Text Only | Print | Product List | Glossary On
Versions: 1 2 3 4 5 6 7 8 9 10 11 12
684
FTUS42 TJSJ 070530
TAFJBQ
TAF
TJBQ 070530Z 0706/0806 07005KT P6SM FEW030 SCT070
     FM071330 15006KT P6SM FEW025 SCT050
     FM071700 06008KT P6SM SCT030 BKN060
     FM072300 VRB04KT P6SM FEW022 SCT040=

USA.gov is the U.S. government's official web portal to all federal, state and local government web resources and services.